Pozo, California
Current Conditions -  °F | °C
As of 2:51 AM on Friday 31 Oct 2014 (Local Time) from KSMX Reporting Station
Overcast Overcast  
Wind Chill: 62°   Ceiling: 1700
Heat Index: 62°   Visibility: 9mi
Dew Point: 55°   Wind: 0mph
Humidity: 78%   Direction: NA
Pressure: 29.96"   Gusts: NA
Location:  35.235°N, 120.021°W
Report Text: KSMX 310951Z AUTO 00000KT 9SM OVC017 17/13 A2996 RMK AO2 SLP144 T01670128
Loading
Personal Weather Stations






























Interactive Weather Map
Tropical Storm Tracking
New forecast layout! Learn more

10-Day Weather Forecast

Advertisements
Track Severe Weather on mobile